sensor_id;sensor_type;location;lat;lon;timestamp;pressure;altitude;pressure_sealevel;temperature;humidity
12991;BME280;6560;57.692;11.958;2022-12-18T00:01:41;101741.63;;;14.55;100.00
12991;BME280;6560;57.692;11.958;2022-12-18T00:04:16;101736.03;;;14.28;100.00
12991;BME280;6560;57.692;11.958;2022-12-18T00:06:43;101842.81;;;14.59;100.00
12991;BME280;6560;57.692;11.958;2022-12-18T00:09:10;101830.13;;;14.22;100.00
12991;BME280;6560;57.692;11.958;2022-12-18T00:11:35;101839.59;;;14.75;100.00
12991;BME280;6560;57.692;11.958;2022-12-18T00:14:01;101844.09;;;14.99;100.00
12991;BME280;6560;57.692;11.958;2022-12-18T00:16:28;101766.06;;;14.74;100.00
12991;BME280;6560;57.692;11.958;2022-12-18T00:18:56;101793.38;;;14.38;100.00
12991;BME280;6560;57.692;11.958;2022-12-18T00:21:22;101820.03;;;14.40;100.00
12991;BME280;6560;57.692;11.958;2022-12-18T00:23:48;101751.41;;;14.67;100.00
12991;BME280;6560;57.692;11.958;2022-12-18T00:26:20;101823.72;;;13.96;100.00
12991;BME280;6560;57.692;11.958;2022-12-18T00:28:46;101849.91;;;14.04;100.00
12991;BME280;6560;57.692;11.958;2022-12-18T00:31:14;101825.63;;;14.66;100.00
12991;BME280;6560;57.692;11.958;2022-12-18T00:33:41;101791.00;;;14.76;100.00
12991;BME280;6560;57.692;11.958;2022-12-18T00:36:12;101805.00;;;14.28;100.00
12991;BME280;6560;57.692;11.958;2022-12-18T00:38:39;101790.84;;;13.18;100.00
12991;BME280;6560;57.692;11.958;2022-12-18T00:41:05;101843.84;;;13.61;100.00
12991;BME280;6560;57.692;11.958;2022-12-18T00:43:31;101843.53;;;13.90;100.00
12991;BME280;6560;57.692;11.958;2022-12-18T00:45:59;101809.69;;;13.00;100.00
12991;BME280;6560;57.692;11.958;2022-12-18T00:48:25;101845.03;;;13.98;100.00
12991;BME280;6560;57.692;11.958;2022-12-18T00:50:51;101840.63;;;14.32;100.00
12991;BME280;6560;57.692;11.958;2022-12-18T00:53:17;101845.78;;;14.19;100.00
12991;BME280;6560;57.692;11.958;2022-12-18T00:55:43;101743.44;;;13.76;100.00
12991;BME280;6560;57.692;11.958;2022-12-18T00:58:10;101715.47;;;13.24;100.00
12991;BME280;6560;57.692;11.958;2022-12-18T01:00:36;101835.69;;;13.48;100.00
12991;BME280;6560;57.692;11.958;2022-12-18T01:03:02;101838.09;;;13.67;100.00
12991;BME280;6560;57.692;11.958;2022-12-18T01:05:28;101820.56;;;13.57;100.00
12991;BME280;6560;57.692;11.958;2022-12-18T01:07:54;101796.50;;;13.66;100.00
12991;BME280;6560;57.692;11.958;2022-12-18T01:10:20;101826.47;;;13.98;100.00
12991;BME280;6560;57.692;11.958;2022-12-18T01:12:45;101845.59;;;14.27;100.00
12991;BME280;6560;57.692;11.958;2022-12-18T01:15:12;101853.75;;;13.85;100.00
12991;BME280;6560;57.692;11.958;2022-12-18T01:17:39;101814.38;;;13.46;100.00
12991;BME280;6560;57.692;11.958;2022-12-18T01:20:06;101817.19;;;14.15;100.00
12991;BME280;6560;57.692;11.958;2022-12-18T01:22:35;101855.97;;;13.47;100.00
12991;BME280;6560;57.692;11.958;2022-12-18T01:25:01;101851.66;;;13.60;100.00
12991;BME280;6560;57.692;11.958;2022-12-18T01:27:27;101772.81;;;13.45;100.00
12991;BME280;6560;57.692;11.958;2022-12-18T01:29:53;101806.75;;;13.18;100.00
12991;BME280;6560;57.692;11.958;2022-12-18T01:32:19;101802.06;;;13.47;100.00
12991;BME280;6560;57.692;11.958;2022-12-18T01:34:45;101865.59;;;13.57;100.00
12991;BME280;6560;57.692;11.958;2022-12-18T01:37:11;101841.94;;;13.48;100.00
12991;BME280;6560;57.692;11.958;2022-12-18T01:39:36;101850.16;;;13.85;100.00
12991;BME280;6560;57.692;11.958;2022-12-18T01:42:11;101779.53;;;12.98;100.00
12991;BME280;6560;57.692;11.958;2022-12-18T01:45:06;101856.47;;;13.75;100.00
12991;BME280;6560;57.692;11.958;2022-12-18T01:47:41;101852.28;;;13.67;100.00
12991;BME280;6560;57.692;11.958;2022-12-18T01:50:12;101826.28;;;13.30;100.00
12991;BME280;6560;57.692;11.958;2022-12-18T01:52:43;101814.09;;;13.32;100.00
12991;BME280;6560;57.692;11.958;2022-12-18T01:55:10;101830.66;;;13.29;100.00
12991;BME280;6560;57.692;11.958;2022-12-18T01:57:37;101828.25;;;13.54;100.00
12991;BME280;6560;57.692;11.958;2022-12-18T02:00:11;101749.50;;;13.20;100.00
12991;BME280;6560;57.692;11.958;2022-12-18T02:02:37;101820.50;;;14.01;100.00
12991;BME280;6560;57.692;11.958;2022-12-18T02:05:04;101825.22;;;14.38;100.00
12991;BME280;6560;57.692;11.958;2022-12-18T02:10:15;101762.94;;;13.88;100.00
12991;BME280;6560;57.692;11.958;2022-12-18T02:12:50;101775.09;;;13.74;100.00
12991;BME280;6560;57.692;11.958;2022-12-18T02:17:52;101786.38;;;14.05;100.00
12991;BME280;6560;57.692;11.958;2022-12-18T02:23:20;101817.09;;;14.70;100.00
12991;BME280;6560;57.692;11.958;2022-12-18T02:28:33;101780.94;;;14.72;100.00
12991;BME280;6560;57.692;11.958;2022-12-18T02:31:02;101759.03;;;14.40;100.00
12991;BME280;6560;57.692;11.958;2022-12-18T02:33:30;101733.84;;;14.58;100.00
12991;BME280;6560;57.692;11.958;2022-12-18T02:35:57;101813.81;;;15.21;100.00
12991;BME280;6560;57.692;11.958;2022-12-18T02:38:25;101739.19;;;14.46;100.00
12991;BME280;6560;57.692;11.958;2022-12-18T02:40:51;101758.56;;;14.45;100.00
12991;BME280;6560;57.692;11.958;2022-12-18T02:43:18;101822.72;;;15.21;100.00
12991;BME280;6560;57.692;11.958;2022-12-18T02:45:50;101715.72;;;14.64;100.00
12991;BME280;6560;57.692;11.958;2022-12-18T02:48:19;101820.22;;;15.47;100.00
12991;BME280;6560;57.692;11.958;2022-12-18T02:51:03;101772.44;;;15.36;100.00
12991;BME280;6560;57.692;11.958;2022-12-18T02:53:41;101716.53;;;14.16;100.00
12991;BME280;6560;57.692;11.958;2022-12-18T02:59:00;101823.56;;;15.57;100.00
12991;BME280;6560;57.692;11.958;2022-12-18T03:01:37;101812.44;;;15.50;100.00
12991;BME280;6560;57.692;11.958;2022-12-18T03:04:12;101828.50;;;15.15;100.00
12991;BME280;6560;57.692;11.958;2022-12-18T03:06:42;101750.38;;;14.54;100.00
12991;BME280;6560;57.692;11.958;2022-12-18T03:09:19;101767.28;;;14.21;100.00
12991;BME280;6560;57.692;11.958;2022-12-18T03:11:53;101798.13;;;15.00;100.00
12991;BME280;6560;57.692;11.958;2022-12-18T03:14:40;101813.16;;;14.88;100.00
12991;BME280;6560;57.692;11.958;2022-12-18T03:17:10;101818.94;;;14.94;100.00
12991;BME280;6560;57.692;11.958;2022-12-18T03:19:39;101824.34;;;14.84;100.00
12991;BME280;6560;57.692;11.958;2022-12-18T03:22:08;101722.22;;;14.67;100.00
12991;BME280;6560;57.692;11.958;2022-12-18T03:24:35;101746.56;;;14.39;100.00
12991;BME280;6560;57.692;11.958;2022-12-18T03:27:06;101822.78;;;15.34;100.00
12991;BME280;6560;57.692;11.958;2022-12-18T03:29:47;101756.94;;;14.70;100.00
12991;BME280;6560;57.692;11.958;2022-12-18T03:32:24;101795.81;;;15.05;100.00
12991;BME280;6560;57.692;11.958;2022-12-18T03:34:52;101823.06;;;14.91;100.00
12991;BME280;6560;57.692;11.958;2022-12-18T03:37:19;101738.00;;;14.66;100.00
12991;BME280;6560;57.692;11.958;2022-12-18T03:39:44;101711.94;;;14.72;100.00
12991;BME280;6560;57.692;11.958;2022-12-18T03:42:12;101821.34;;;14.91;100.00
12991;BME280;6560;57.692;11.958;2022-12-18T03:45:09;101823.53;;;14.97;100.00
12991;BME280;6560;57.692;11.958;2022-12-18T03:47:45;101823.44;;;15.67;100.00
12991;BME280;6560;57.692;11.958;2022-12-18T03:50:20;101823.53;;;14.50;100.00
12991;BME280;6560;57.692;11.958;2022-12-18T03:53:01;101833.44;;;14.53;100.00
12991;BME280;6560;57.692;11.958;2022-12-18T03:55:32;101807.22;;;13.89;100.00
12991;BME280;6560;57.692;11.958;2022-12-18T03:58:01;101817.72;;;13.99;100.00
12991;BME280;6560;57.692;11.958;2022-12-18T04:00:29;101846.81;;;14.09;100.00
12991;BME280;6560;57.692;11.958;2022-12-18T04:02:57;101831.53;;;14.28;100.00
12991;BME280;6560;57.692;11.958;2022-12-18T04:05:28;101746.63;;;13.38;100.00
12991;BME280;6560;57.692;11.958;2022-12-18T04:07:55;101746.84;;;13.96;100.00
12991;BME280;6560;57.692;11.958;2022-12-18T04:10:21;101795.19;;;13.82;100.00
12991;BME280;6560;57.692;11.958;2022-12-18T04:12:47;101830.31;;;14.02;100.00
12991;BME280;6560;57.692;11.958;2022-12-18T04:15:13;101769.34;;;13.80;100.00
12991;BME280;6560;57.692;11.958;2022-12-18T04:17:46;101852.59;;;14.15;100.00
12991;BME280;6560;57.692;11.958;2022-12-18T04:20:12;101834.41;;;14.31;100.00
12991;BME280;6560;57.692;11.958;2022-12-18T04:22:38;101835.44;;;14.22;100.00
12991;BME280;6560;57.692;11.958;2022-12-18T04:25:03;101848.50;;;13.97;100.00
12991;BME280;6560;57.692;11.958;2022-12-18T04:27:29;101851.03;;;13.74;100.00
12991;BME280;6560;57.692;11.958;2022-12-18T04:29:55;101862.94;;;13.79;100.00
12991;BME280;6560;57.692;11.958;2022-12-18T04:32:20;101864.09;;;14.04;100.00
12991;BME280;6560;57.692;11.958;2022-12-18T04:34:46;101865.09;;;13.94;100.00
12991;BME280;6560;57.692;11.958;2022-12-18T04:37:11;101837.66;;;12.04;100.00
12991;BME280;6560;57.692;11.958;2022-12-18T04:39:37;101812.06;;;11.54;100.00
12991;BME280;6560;57.692;11.958;2022-12-18T04:42:02;101882.88;;;12.07;100.00
12991;BME280;6560;57.692;11.958;2022-12-18T04:44:28;101876.88;;;11.79;100.00
12991;BME280;6560;57.692;11.958;2022-12-18T04:46:53;101856.53;;;11.78;100.00
12991;BME280;6560;57.692;11.958;2022-12-18T04:49:19;101865.03;;;11.94;100.00
12991;BME280;6560;57.692;11.958;2022-12-18T04:51:44;101858.94;;;12.06;100.00
12991;BME280;6560;57.692;11.958;2022-12-18T04:54:10;101863.44;;;12.17;100.00
12991;BME280;6560;57.692;11.958;2022-12-18T04:56:35;101821.56;;;12.01;100.00
12991;BME280;6560;57.692;11.958;2022-12-18T04:59:01;101869.25;;;11.92;100.00
12991;BME280;6560;57.692;11.958;2022-12-18T05:01:27;101874.00;;;11.86;100.00
12991;BME280;6560;57.692;11.958;2022-12-18T05:03:52;101876.63;;;11.96;100.00
12991;BME280;6560;57.692;11.958;2022-12-18T05:06:18;101871.88;;;11.92;100.00
12991;BME280;6560;57.692;11.958;2022-12-18T05:08:43;101880.88;;;12.05;100.00
12991;BME280;6560;57.692;11.958;2022-12-18T05:11:11;101841.44;;;11.67;100.00
12991;BME280;6560;57.692;11.958;2022-12-18T05:13:37;101877.66;;;11.78;100.00
12991;BME280;6560;57.692;11.958;2022-12-18T05:16:04;101870.19;;;11.54;100.00
12991;BME280;6560;57.692;11.958;2022-12-18T05:18:30;101881.38;;;11.90;100.00
12991;BME280;6560;57.692;11.958;2022-12-18T05:20:56;101845.38;;;11.72;100.00
12991;BME280;6560;57.692;11.958;2022-12-18T05:23:22;101853.88;;;11.88;100.00
12991;BME280;6560;57.692;11.958;2022-12-18T05:26:15;101868.16;;;11.90;100.00
12991;BME280;6560;57.692;11.958;2022-12-18T05:28:41;101796.97;;;11.33;100.00
12991;BME280;6560;57.692;11.958;2022-12-18T05:31:06;101849.75;;;11.62;100.00
12991;BME280;6560;57.692;11.958;2022-12-18T05:33:33;101884.97;;;12.42;100.00
12991;BME280;6560;57.692;11.958;2022-12-18T05:36:00;101873.38;;;11.60;100.00
12991;BME280;6560;57.692;11.958;2022-12-18T05:38:26;101879.16;;;12.05;100.00
12991;BME280;6560;57.692;11.958;2022-12-18T05:40:53;101843.84;;;11.84;100.00
12991;BME280;6560;57.692;11.958;2022-12-18T05:43:19;101722.66;;;11.38;100.00
12991;BME280;6560;57.692;11.958;2022-12-18T05:45:47;101879.31;;;12.07;100.00
12991;BME280;6560;57.692;11.958;2022-12-18T05:48:13;101889.22;;;12.60;100.00
12991;BME280;6560;57.692;11.958;2022-12-18T05:50:41;101879.94;;;12.04;100.00
12991;BME280;6560;57.692;11.958;2022-12-18T05:53:08;101858.28;;;11.88;100.00
12991;BME280;6560;57.692;11.958;2022-12-18T05:55:34;101892.78;;;12.10;100.00
12991;BME280;6560;57.692;11.958;2022-12-18T05:58:00;101842.16;;;12.05;100.00
12991;BME280;6560;57.692;11.958;2022-12-18T06:00:26;101876.94;;;12.20;100.00
12991;BME280;6560;57.692;11.958;2022-12-18T06:02:51;101886.31;;;12.26;100.00
12991;BME280;6560;57.692;11.958;2022-12-18T06:05:17;101842.53;;;11.79;100.00
12991;BME280;6560;57.692;11.958;2022-12-18T06:07:42;101883.53;;;12.05;100.00
12991;BME280;6560;57.692;11.958;2022-12-18T06:10:08;101896.22;;;12.29;100.00
12991;BME280;6560;57.692;11.958;2022-12-18T06:12:34;101826.56;;;11.98;100.00
12991;BME280;6560;57.692;11.958;2022-12-18T06:15:00;101904.41;;;12.12;100.00
12991;BME280;6560;57.692;11.958;2022-12-18T06:17:30;101865.69;;;11.63;100.00
12991;BME280;6560;57.692;11.958;2022-12-18T06:19:55;101885.78;;;12.00;100.00
12991;BME280;6560;57.692;11.958;2022-12-18T06:22:21;101883.53;;;12.05;100.00
12991;BME280;6560;57.692;11.958;2022-12-18T06:24:47;101913.66;;;12.47;100.00
12991;BME280;6560;57.692;11.958;2022-12-18T06:27:12;101922.13;;;12.13;100.00
12991;BME280;6560;57.692;11.958;2022-12-18T06:29:38;101908.41;;;12.27;100.00
12991;BME280;6560;57.692;11.958;2022-12-18T06:32:03;101811.22;;;11.84;100.00
12991;BME280;6560;57.692;11.958;2022-12-18T06:34:29;101873.03;;;11.76;100.00
12991;BME280;6560;57.692;11.958;2022-12-18T06:36:55;101885.09;;;12.03;100.00
12991;BME280;6560;57.692;11.958;2022-12-18T06:39:20;101901.09;;;12.34;100.00
12991;BME280;6560;57.692;11.958;2022-12-18T06:41:46;101909.03;;;12.14;100.00
12991;BME280;6560;57.692;11.958;2022-12-18T06:44:11;101782.69;;;11.80;100.00
12991;BME280;6560;57.692;11.958;2022-12-18T06:46:37;101900.31;;;12.56;100.00
12991;BME280;6560;57.692;11.958;2022-12-18T06:49:03;101885.38;;;12.56;100.00
12991;BME280;6560;57.692;11.958;2022-12-18T06:51:29;101805.81;;;12.13;100.00
12991;BME280;6560;57.692;11.958;2022-12-18T06:53:55;101916.84;;;12.63;100.00
12991;BME280;6560;57.692;11.958;2022-12-18T06:56:20;101909.91;;;13.06;100.00
12991;BME280;6560;57.692;11.958;2022-12-18T06:58:46;101916.91;;;13.15;100.00
12991;BME280;6560;57.692;11.958;2022-12-18T07:01:12;101824.28;;;11.82;100.00
12991;BME280;6560;57.692;11.958;2022-12-18T07:03:39;101943.06;;;13.33;100.00
12991;BME280;6560;57.692;11.958;2022-12-18T07:06:05;101934.97;;;12.79;100.00
12991;BME280;6560;57.692;11.958;2022-12-18T07:08:32;101919.22;;;12.20;100.00
12991;BME280;6560;57.692;11.958;2022-12-18T07:10:57;101933.50;;;12.42;100.00
12991;BME280;6560;57.692;11.958;2022-12-18T07:13:23;101929.28;;;12.44;100.00
12991;BME280;6560;57.692;11.958;2022-12-18T07:15:49;101930.84;;;12.22;100.00
12991;BME280;6560;57.692;11.958;2022-12-18T07:18:15;101918.16;;;12.18;100.00
12991;BME280;6560;57.692;11.958;2022-12-18T07:20:40;101929.25;;;11.93;100.00
12991;BME280;6560;57.692;11.958;2022-12-18T07:23:06;101925.22;;;11.78;100.00
12991;BME280;6560;57.692;11.958;2022-12-18T07:25:35;101953.22;;;12.46;100.00
12991;BME280;6560;57.692;11.958;2022-12-18T07:28:01;101912.06;;;12.09;100.00
12991;BME280;6560;57.692;11.958;2022-12-18T07:30:26;101951.84;;;12.00;100.00
12991;BME280;6560;57.692;11.958;2022-12-18T07:32:52;101953.13;;;11.95;100.00
12991;BME280;6560;57.692;11.958;2022-12-18T07:35:18;101947.66;;;12.32;100.00
12991;BME280;6560;57.692;11.958;2022-12-18T07:37:44;101943.13;;;12.11;100.00
12991;BME280;6560;57.692;11.958;2022-12-18T07:40:10;101889.16;;;11.50;100.00
12991;BME280;6560;57.692;11.958;2022-12-18T07:42:36;101919.00;;;11.49;100.00
12991;BME280;6560;57.692;11.958;2022-12-18T07:45:02;101971.59;;;12.24;100.00
12991;BME280;6560;57.692;11.958;2022-12-18T07:47:34;101939.91;;;11.95;100.00
12991;BME280;6560;57.692;11.958;2022-12-18T07:49:59;101960.75;;;12.41;100.00
12991;BME280;6560;57.692;11.958;2022-12-18T07:52:25;101953.06;;;12.34;100.00
12991;BME280;6560;57.692;11.958;2022-12-18T07:54:50;101939.56;;;12.21;100.00
12991;BME280;6560;57.692;11.958;2022-12-18T07:57:17;101973.97;;;12.31;100.00
12991;BME280;6560;57.692;11.958;2022-12-18T07:59:43;101963.00;;;12.77;100.00
12991;BME280;6560;57.692;11.958;2022-12-18T08:02:11;101963.13;;;12.99;100.00
12991;BME280;6560;57.692;11.958;2022-12-18T08:04:37;101971.34;;;12.71;100.00
12991;BME280;6560;57.692;11.958;2022-12-18T08:07:02;101886.03;;;12.44;100.00
12991;BME280;6560;57.692;11.958;2022-12-18T08:09:28;101984.00;;;13.26;100.00
12991;BME280;6560;57.692;11.958;2022-12-18T08:11:53;101973.31;;;12.94;100.00
12991;BME280;6560;57.692;11.958;2022-12-18T08:14:19;101959.78;;;13.01;100.00
12991;BME280;6560;57.692;11.958;2022-12-18T08:16:45;101969.59;;;13.23;100.00
12991;BME280;6560;57.692;11.958;2022-12-18T08:19:11;101996.47;;;12.87;100.00
12991;BME280;6560;57.692;11.958;2022-12-18T08:21:37;101958.78;;;12.79;100.00
12991;BME280;6560;57.692;11.958;2022-12-18T08:24:03;102010.50;;;12.75;100.00
12991;BME280;6560;57.692;11.958;2022-12-18T08:26:30;102026.66;;;12.78;100.00
12991;BME280;6560;57.692;11.958;2022-12-18T08:28:58;102014.22;;;13.18;100.00
12991;BME280;6560;57.692;11.958;2022-12-18T08:31:25;101930.44;;;12.88;100.00
12991;BME280;6560;57.692;11.958;2022-12-18T08:33:52;101885.06;;;12.73;100.00
12991;BME280;6560;57.692;11.958;2022-12-18T08:36:19;102019.63;;;13.20;100.00
12991;BME280;6560;57.692;11.958;2022-12-18T08:38:45;101950.19;;;12.71;100.00
12991;BME280;6560;57.692;11.958;2022-12-18T08:41:13;101950.84;;;12.59;100.00
12991;BME280;6560;57.692;11.958;2022-12-18T08:43:45;102016.59;;;12.85;100.00
12991;BME280;6560;57.692;11.958;2022-12-18T08:46:38;102023.75;;;12.96;100.00
12991;BME280;6560;57.692;11.958;2022-12-18T08:49:05;101986.16;;;12.90;100.00
12991;BME280;6560;57.692;11.958;2022-12-18T08:51:31;102040.41;;;13.35;100.00
12991;BME280;6560;57.692;11.958;2022-12-18T08:53:57;102051.78;;;13.34;100.00
12991;BME280;6560;57.692;11.958;2022-12-18T08:56:23;102054.47;;;13.24;100.00
12991;BME280;6560;57.692;11.958;2022-12-18T08:58:52;102054.06;;;13.30;100.00
12991;BME280;6560;57.692;11.958;2022-12-18T09:01:18;102057.56;;;12.49;100.00
12991;BME280;6560;57.692;11.958;2022-12-18T09:03:43;101969.69;;;12.03;100.00
12991;BME280;6560;57.692;11.958;2022-12-18T09:06:09;102058.81;;;12.73;100.00
12991;BME280;6560;57.692;11.958;2022-12-18T09:08:34;102078.00;;;12.91;100.00
12991;BME280;6560;57.692;11.958;2022-12-18T09:11:00;102056.03;;;12.12;100.00
12991;BME280;6560;57.692;11.958;2022-12-18T09:13:25;102078.09;;;12.52;100.00
12991;BME280;6560;57.692;11.958;2022-12-18T09:15:54;102086.44;;;12.56;100.00
12991;BME280;6560;57.692;11.958;2022-12-18T09:18:22;102083.94;;;12.68;100.00
12991;BME280;6560;57.692;11.958;2022-12-18T09:20:49;102083.53;;;12.63;100.00
12991;BME280;6560;57.692;11.958;2022-12-18T09:23:17;102076.03;;;12.98;100.00
12991;BME280;6560;57.692;11.958;2022-12-18T09:25:42;101986.16;;;12.49;100.00
12991;BME280;6560;57.692;11.958;2022-12-18T09:28:16;102003.47;;;12.35;100.00
12991;BME280;6560;57.692;11.958;2022-12-18T09:30:45;101974.56;;;12.08;100.00
12991;BME280;6560;57.692;11.958;2022-12-18T09:33:11;102082.50;;;12.82;100.00
12991;BME280;6560;57.692;11.958;2022-12-18T09:35:37;102103.81;;;12.83;100.00
12991;BME280;6560;57.692;11.958;2022-12-18T09:38:04;102092.41;;;12.74;100.00
12991;BME280;6560;57.692;11.958;2022-12-18T09:40:35;102082.78;;;12.85;100.00
12991;BME280;6560;57.692;11.958;2022-12-18T09:43:06;102017.84;;;12.29;100.00
12991;BME280;6560;57.692;11.958;2022-12-18T09:45:41;102089.91;;;12.96;100.00
12991;BME280;6560;57.692;11.958;2022-12-18T09:48:16;102067.44;;;12.91;100.00
12991;BME280;6560;57.692;11.958;2022-12-18T09:50:44;102043.03;;;12.54;100.00
12991;BME280;6560;57.692;11.958;2022-12-18T09:53:18;102083.56;;;12.84;100.00
12991;BME280;6560;57.692;11.958;2022-12-18T09:55:46;102016.31;;;12.51;100.00
12991;BME280;6560;57.692;11.958;2022-12-18T09:58:19;102084.00;;;13.19;100.00
12991;BME280;6560;57.692;11.958;2022-12-18T10:00:46;102099.94;;;12.69;100.00
12991;BME280;6560;57.692;11.958;2022-12-18T10:03:13;102082.00;;;12.86;100.00
12991;BME280;6560;57.692;11.958;2022-12-18T10:11:46;102006.00;;;12.74;100.00
12991;BME280;6560;57.692;11.958;2022-12-18T10:13:59;102087.91;;;13.64;100.00
12991;BME280;6560;57.692;11.958;2022-12-18T10:16:31;102097.88;;;13.46;100.00
12991;BME280;6560;57.692;11.958;2022-12-18T10:24:48;102103.44;;;12.99;100.00
12991;BME280;6560;57.692;11.958;2022-12-18T10:27:18;102095.47;;;12.89;100.00
12991;BME280;6560;57.692;11.958;2022-12-18T10:29:47;102090.19;;;12.89;100.00
12991;BME280;6560;57.692;11.958;2022-12-18T10:32:25;102099.13;;;12.60;100.00
12991;BME280;6560;57.692;11.958;2022-12-18T10:34:54;102046.22;;;12.81;100.00
12991;BME280;6560;57.692;11.958;2022-12-18T10:37:22;102091.78;;;12.97;100.00
12991;BME280;6560;57.692;11.958;2022-12-18T10:42:34;102130.56;;;12.37;100.00
12991;BME280;6560;57.692;11.958;2022-12-18T10:45:13;102147.91;;;12.44;100.00
12991;BME280;6560;57.692;11.958;2022-12-18T10:47:46;102135.38;;;12.51;100.00
12991;BME280;6560;57.692;11.958;2022-12-18T10:50:29;102148.97;;;12.46;100.00
12991;BME280;6560;57.692;11.958;2022-12-18T10:53:04;102069.19;;;12.41;100.00
12991;BME280;6560;57.692;11.958;2022-12-18T10:55:35;102065.38;;;11.98;100.00
12991;BME280;6560;57.692;11.958;2022-12-18T10:58:27;102143.88;;;12.67;100.00
12991;BME280;6560;57.692;11.958;2022-12-18T11:06:15;102165.78;;;12.17;100.00
12991;BME280;6560;57.692;11.958;2022-12-18T11:08:42;102079.59;;;12.29;100.00
12991;BME280;6560;57.692;11.958;2022-12-18T11:11:22;102115.72;;;12.88;100.00
12991;BME280;6560;57.692;11.958;2022-12-18T11:14:02;102131.09;;;12.43;100.00
12991;BME280;6560;57.692;11.958;2022-12-18T11:16:33;102120.03;;;12.67;100.00
12991;BME280;6560;57.692;11.958;2022-12-18T11:19:37;102136.34;;;12.82;100.00
12991;BME280;6560;57.692;11.958;2022-12-18T11:22:37;102154.34;;;12.76;100.00
12991;BME280;6560;57.692;11.958;2022-12-18T11:25:19;102161.84;;;12.61;100.00
12991;BME280;6560;57.692;11.958;2022-12-18T11:27:54;102112.66;;;12.63;100.00
12991;BME280;6560;57.692;11.958;2022-12-18T11:30:22;102158.56;;;13.23;100.00
12991;BME280;6560;57.692;11.958;2022-12-18T11:33:06;102061.00;;;12.38;100.00
12991;BME280;6560;57.692;11.958;2022-12-18T11:38:47;102173.06;;;13.08;100.00
12991;BME280;6560;57.692;11.958;2022-12-18T11:43:53;102087.13;;;12.74;100.00
12991;BME280;6560;57.692;11.958;2022-12-18T11:46:29;102111.22;;;12.77;100.00
12991;BME280;6560;57.692;11.958;2022-12-18T11:51:55;102076.72;;;12.36;100.00
12991;BME280;6560;57.692;11.958;2022-12-18T11:54:22;102115.53;;;12.56;100.00
12991;BME280;6560;57.692;11.958;2022-12-18T11:56:56;102028.03;;;12.24;100.00
12991;BME280;6560;57.692;11.958;2022-12-18T11:59:34;102063.81;;;12.01;100.00
12991;BME280;6560;57.692;11.958;2022-12-18T12:02:11;102172.06;;;13.16;100.00
12991;BME280;6560;57.692;11.958;2022-12-18T12:10:53;102201.88;;;12.46;100.00
12991;BME280;6560;57.692;11.958;2022-12-18T12:13:33;102176.69;;;12.59;100.00
12991;BME280;6560;57.692;11.958;2022-12-18T12:16:22;102207.03;;;12.44;100.00
12991;BME280;6560;57.692;11.958;2022-12-18T12:19:13;102189.41;;;12.73;100.00
12991;BME280;6560;57.692;11.958;2022-12-18T12:21:59;102196.44;;;12.83;100.00
12991;BME280;6560;57.692;11.958;2022-12-18T12:37:27;102221.56;;;12.39;100.00
12991;BME280;6560;57.692;11.958;2022-12-18T12:39:56;102110.53;;;11.91;100.00
12991;BME280;6560;57.692;11.958;2022-12-18T12:42:35;102023.75;;;12.06;100.00
12991;BME280;6560;57.692;11.958;2022-12-18T12:45:28;102221.22;;;12.55;100.00
12991;BME280;6560;57.692;11.958;2022-12-18T12:47:57;102208.59;;;12.71;100.00
12991;BME280;6560;57.692;11.958;2022-12-18T12:50:23;102179.97;;;13.06;100.00
12991;BME280;6560;57.692;11.958;2022-12-18T12:52:53;102189.19;;;13.01;100.00
12991;BME280;6560;57.692;11.958;2022-12-18T12:55:29;102188.13;;;12.50;100.00
12991;BME280;6560;57.692;11.958;2022-12-18T13:01:28;102120.75;;;12.36;100.00
12991;BME280;6560;57.692;11.958;2022-12-18T13:04:21;102145.56;;;12.57;100.00
12991;BME280;6560;57.692;11.958;2022-12-18T13:07:00;102222.78;;;13.21;100.00
12991;BME280;6560;57.692;11.958;2022-12-18T13:09:32;102162.56;;;12.79;100.00
12991;BME280;6560;57.692;11.958;2022-12-18T13:12:10;102221.03;;;12.72;100.00
12991;BME280;6560;57.692;11.958;2022-12-18T13:15:12;102131.81;;;12.61;100.00
12991;BME280;6560;57.692;11.958;2022-12-18T13:17:38;101974.84;;;11.43;100.00
12991;BME280;6560;57.692;11.958;2022-12-18T13:20:07;102154.75;;;12.42;100.00
12991;BME280;6560;57.692;11.958;2022-12-18T13:25:36;102220.97;;;13.01;100.00
12991;BME280;6560;57.692;11.958;2022-12-18T13:28:11;102236.94;;;12.82;100.00
12991;BME280;6560;57.692;11.958;2022-12-18T13:30:42;102222.94;;;12.54;100.00
12991;BME280;6560;57.692;11.958;2022-12-18T13:35:41;102236.41;;;12.76;100.00
12991;BME280;6560;57.692;11.958;2022-12-18T13:43:55;102169.94;;;12.63;100.00
12991;BME280;6560;57.692;11.958;2022-12-18T13:46:57;102143.00;;;12.48;100.00
12991;BME280;6560;57.692;11.958;2022-12-18T13:56:01;102244.09;;;12.54;100.00
12991;BME280;6560;57.692;11.958;2022-12-18T14:01:45;101949.47;;;11.35;100.00
12991;BME280;6560;57.692;11.958;2022-12-18T14:08:14;102158.72;;;12.75;100.00
12991;BME280;6560;57.692;11.958;2022-12-18T14:10:48;102148.59;;;12.22;100.00
12991;BME280;6560;57.692;11.958;2022-12-18T14:16:05;101767.13;;;10.18;100.00
12991;BME280;6560;57.692;11.958;2022-12-18T14:24:32;101964.72;;;11.29;100.00
12991;BME280;6560;57.692;11.958;2022-12-18T14:27:36;102254.78;;;12.74;100.00
12991;BME280;6560;57.692;11.958;2022-12-18T14:40:41;102168.41;;;12.17;100.00
12991;BME280;6560;57.692;11.958;2022-12-18T14:43:10;102246.88;;;12.85;100.00